Time;durP1;ratioP1;P1;durP2;ratioP2;P2;SDS_P1;SDS_P2;PMS_P1;PMS_P2;Temp;Humidity;BMP_temperature;BMP_pressure;BME280_temperature;BME280_humidity;BME280_pressure;Samples;Min_cycle;Max_cycle;Signal;HPM_P1;HPM_P2
2023/04/10 00:01:39;;;;;;;12.93;10.13;;;10.10;99.90;;;;;;4954984;28;20252;-80
2023/04/10 00:04:07;;;;;;;13.10;9.93;;;10.00;99.90;;;;;;4979775;28;20224;-80
2023/04/10 00:06:33;;;;;;;13.30;10.30;;;10.00;99.90;;;;;;4971553;28;20212;-79
2023/04/10 00:09:01;;;;;;;17.23;10.60;;;9.90;99.90;;;;;;4962299;28;20467;-79
2023/04/10 00:11:26;;;;;;;13.25;9.43;;;9.80;99.90;;;;;;4968088;28;20537;-80
2023/04/10 00:13:52;;;;;;;16.43;10.10;;;9.80;99.90;;;;;;4963798;28;20219;-80
2023/04/10 00:16:18;;;;;;;13.07;10.30;;;9.70;99.90;;;;;;4974706;28;20199;-80
2023/04/10 00:18:44;;;;;;;11.70;9.18;;;9.70;99.90;;;;;;4969336;28;20473;-79
2023/04/10 00:21:10;;;;;;;14.43;10.77;;;9.70;99.90;;;;;;4981299;28;20185;-79
2023/04/10 00:23:36;;;;;;;14.27;10.37;;;9.60;99.90;;;;;;4972426;28;20241;-79
2023/04/10 00:26:02;;;;;;;12.80;10.07;;;9.60;99.90;;;;;;4969459;28;20212;-79
2023/04/10 00:28:28;;;;;;;15.38;10.57;;;9.60;99.90;;;;;;4970646;28;20439;-80
2023/04/10 00:30:54;;;;;;;17.10;11.40;;;9.50;99.90;;;;;;4978875;28;20223;-79
2023/04/10 00:33:19;;;;;;;12.53;10.63;;;9.50;99.90;;;;;;4958046;29;20188;-79
2023/04/10 00:35:45;;;;;;;13.20;9.97;;;9.50;99.90;;;;;;4976243;28;20184;-80
2023/04/10 00:38:11;;;;;;;15.30;10.90;;;9.40;99.90;;;;;;4965852;28;20216;-80
2023/04/10 00:40:37;;;;;;;16.20;11.53;;;9.40;99.90;;;;;;4968715;28;20841;-80
2023/04/10 00:43:02;;;;;;;14.27;10.83;;;9.40;99.90;;;;;;4966855;28;20197;-81
2023/04/10 00:45:28;;;;;;;14.20;10.60;;;9.30;99.90;;;;;;4980512;28;20208;-80
2023/04/10 00:47:54;;;;;;;12.20;9.80;;;9.30;99.90;;;;;;4971764;28;20607;-79
2023/04/10 00:50:20;;;;;;;14.68;10.52;;;9.30;99.90;;;;;;4954817;29;20195;-80
2023/04/10 00:52:47;;;;;;;13.05;9.75;;;9.20;99.90;;;;;;4952866;28;20185;-80
2023/04/10 00:55:14;;;;;;;14.43;11.07;;;9.20;99.90;;;;;;4976715;28;20185;-80
2023/04/10 00:57:45;;;;;;;15.52;10.68;;;9.20;99.90;;;;;;4956415;28;20425;-80
2023/04/10 01:00:12;;;;;;;12.90;9.38;;;9.20;99.90;;;;;;4959225;28;20212;-80
2023/04/10 01:02:37;;;;;;;13.60;10.03;;;9.20;99.90;;;;;;4966862;28;20189;-80
2023/04/10 01:05:03;;;;;;;14.33;9.20;;;9.20;99.90;;;;;;4972045;28;20464;-81
2023/04/10 01:07:31;;;;;;;12.63;9.77;;;9.20;99.90;;;;;;4982188;28;20180;-81
2023/04/10 01:10:09;;;;;;;13.40;9.27;;;9.20;99.90;;;;;;4954407;28;20464;-80
2023/04/10 01:12:50;;;;;;;15.13;9.27;;;9.20;99.90;;;;;;4973807;28;20189;-81
2023/04/10 01:15:21;;;;;;;13.20;9.75;;;9.20;99.90;;;;;;4973422;28;20342;-80
2023/04/10 01:17:53;;;;;;;10.45;9.35;;;9.30;99.90;;;;;;4972357;28;20257;-80
2023/04/10 01:20:25;;;;;;;10.90;8.95;;;9.30;99.90;;;;;;4945025;29;20204;-80
2023/04/10 01:23:05;;;;;;;11.38;8.70;;;9.30;99.90;;;;;;4954537;28;20219;-80
2023/04/10 01:25:42;;;;;;;11.68;8.80;;;9.30;99.90;;;;;;4962110;28;20205;-80
2023/04/10 01:28:46;;;;;;;11.90;9.93;;;9.30;99.90;;;;;;4974988;28;20199;-81
2023/04/10 01:31:18;;;;;;;11.05;8.50;;;9.30;99.90;;;;;;4970405;28;20544;-79
2023/04/10 01:33:49;;;;;;;18.08;9.02;;;9.30;99.90;;;;;;4950439;29;20178;-80
2023/04/10 01:36:27;;;;;;;14.05;9.10;;;9.30;99.90;;;;;;4975052;28;20668;-80
2023/04/10 01:38:55;;;;;;;12.82;9.10;;;9.20;99.90;;;;;;4967636;28;20232;-80
2023/04/10 01:41:22;;;;;;;13.23;9.98;;;9.20;99.90;;;;;;4965728;28;20193;-80
2023/04/10 01:43:51;;;;;;;10.70;9.60;;;9.20;99.90;;;;;;4975327;28;20248;-80
2023/04/10 01:46:24;;;;;;;11.13;9.38;;;9.20;99.90;;;;;;4972293;28;20204;-81
2023/04/10 01:48:52;;;;;;;14.43;9.85;;;9.20;99.90;;;;;;4976806;28;20199;-80
2023/04/10 01:51:18;;;;;;;13.27;9.30;;;9.20;99.90;;;;;;4972156;28;20276;-81
2023/04/10 01:53:47;;;;;;;10.80;8.30;;;9.20;99.90;;;;;;4967665;28;20903;-79
2023/04/10 01:56:14;;;;;;;12.85;9.60;;;9.20;99.90;;;;;;4971737;28;20252;-80
2023/04/10 01:58:40;;;;;;;13.18;10.43;;;9.20;99.90;;;;;;4971088;28;20224;-80
2023/04/10 02:01:05;;;;;;;12.23;9.13;;;9.20;99.90;;;;;;4959019;28;20215;-80
2023/04/10 02:03:31;;;;;;;13.33;9.30;;;9.20;99.90;;;;;;4982441;28;20882;-80
2023/04/10 02:06:32;;;;;;;17.27;9.97;;;9.20;99.90;;;;;;4956686;28;20213;-80
2023/04/10 02:09:30;;;;;;;13.38;9.52;;;9.20;99.90;;;;;;4964069;28;20775;-80
2023/04/10 02:12:08;;;;;;;10.52;8.77;;;9.20;99.90;;;;;;4959590;28;20667;-80
2023/04/10 02:14:36;;;;;;;12.10;9.30;;;9.10;99.90;;;;;;4982702;28;20187;-80
2023/04/10 02:17:02;;;;;;;10.68;9.40;;;9.10;99.90;;;;;;4980222;28;20461;-80
2023/04/10 02:19:30;;;;;;;13.23;10.13;;;9.10;99.90;;;;;;4980571;28;20208;-79
2023/04/10 02:21:57;;;;;;;14.68;9.65;;;9.00;99.90;;;;;;4971823;28;20244;-80
2023/04/10 02:24:24;;;;;;;12.65;9.60;;;9.00;99.90;;;;;;4969437;28;20192;-81
2023/04/10 02:26:51;;;;;;;12.00;8.95;;;9.00;99.90;;;;;;4969688;28;20216;-80
2023/04/10 02:29:18;;;;;;;12.40;9.13;;;8.90;99.90;;;;;;4980312;28;20215;-80
2023/04/10 02:31:44;;;;;;;19.75;11.30;;;8.90;99.90;;;;;;4979226;28;20212;-80
2023/04/10 02:34:10;;;;;;;12.15;10.02;;;8.80;99.90;;;;;;4964364;28;20527;-80
2023/04/10 02:36:37;;;;;;;14.73;8.93;;;8.80;99.90;;;;;;4981978;28;20195;-80
2023/04/10 02:39:03;;;;;;;11.27;9.25;;;8.80;99.90;;;;;;4974094;28;20459;-80
2023/04/10 02:41:28;;;;;;;16.93;9.70;;;8.70;99.90;;;;;;4969369;28;20664;-81
2023/04/10 02:43:54;;;;;;;15.50;10.20;;;8.70;99.90;;;;;;4952874;28;20192;-80
2023/04/10 02:46:19;;;;;;;14.67;10.57;;;8.60;99.90;;;;;;4957720;28;20212;-80
2023/04/10 02:48:45;;;;;;;13.50;9.50;;;8.60;99.90;;;;;;4983647;28;20200;-80
2023/04/10 02:51:10;;;;;;;13.47;9.17;;;8.60;99.90;;;;;;4966922;28;20275;-81
2023/04/10 02:53:36;;;;;;;12.63;9.20;;;8.50;99.90;;;;;;4974279;28;20200;-81
2023/04/10 02:56:02;;;;;;;15.30;8.50;;;8.50;99.90;;;;;;4953563;28;20196;-80
2023/04/10 02:58:29;;;;;;;14.63;10.68;;;8.50;99.90;;;;;;4984721;28;20208;-81
2023/04/10 03:00:55;;;;;;;14.15;8.90;;;8.50;99.90;;;;;;4981391;28;20184;-80
2023/04/10 03:03:21;;;;;;;12.60;8.90;;;8.50;99.90;;;;;;4978258;28;20180;-80
2023/04/10 03:05:48;;;;;;;13.23;10.37;;;8.50;99.90;;;;;;4968164;28;20216;-80
2023/04/10 03:08:14;;;;;;;14.00;9.40;;;8.50;99.90;;;;;;4979053;28;20207;-80
2023/04/10 03:10:42;;;;;;;12.45;8.98;;;8.50;99.90;;;;;;4968085;28;20184;-81
2023/04/10 03:13:07;;;;;;;12.43;8.43;;;8.50;99.90;;;;;;4983740;28;20327;-82
2023/04/10 03:15:33;;;;;;;15.00;9.47;;;8.40;99.90;;;;;;4984187;28;20224;-79
2023/04/10 03:17:58;;;;;;;13.10;9.90;;;8.40;99.90;;;;;;4979425;28;20704;-80
2023/04/10 03:20:24;;;;;;;12.47;9.73;;;8.40;99.90;;;;;;4976889;28;20189;-80
2023/04/10 03:22:49;;;;;;;13.27;9.53;;;8.40;99.90;;;;;;4974379;28;20205;-82
2023/04/10 03:25:15;;;;;;;14.73;9.00;;;8.40;99.90;;;;;;4977978;28;20588;-80
2023/04/10 03:27:40;;;;;;;11.13;8.80;;;8.40;99.90;;;;;;4961224;28;20180;-79
2023/04/10 03:30:07;;;;;;;14.60;9.27;;;8.40;99.90;;;;;;4979492;28;20664;-81
2023/04/10 03:32:32;;;;;;;11.60;8.60;;;8.40;99.90;;;;;;4960191;28;20212;-82
2023/04/10 03:34:58;;;;;;;13.50;9.33;;;8.40;99.90;;;;;;4985312;28;20184;-81
2023/04/10 03:37:24;;;;;;;11.80;8.43;;;8.40;99.90;;;;;;4985317;28;20189;-82
2023/04/10 03:39:50;;;;;;;13.85;9.18;;;8.40;99.90;;;;;;4967872;28;20275;-81
2023/04/10 03:42:15;;;;;;;15.43;9.87;;;8.40;99.90;;;;;;4985389;28;20580;-81
2023/04/10 03:44:41;;;;;;;13.20;8.70;;;8.40;99.90;;;;;;4967591;28;20248;-81
2023/04/10 03:47:06;;;;;;;10.67;8.87;;;8.40;99.90;;;;;;4981702;28;20184;-80
2023/04/10 03:49:32;;;;;;;13.83;10.00;;;8.40;99.90;;;;;;4984172;28;20219;-81
2023/04/10 03:51:57;;;;;;;12.80;8.97;;;8.30;99.90;;;;;;4966457;28;20184;-80
2023/04/10 03:54:23;;;;;;;12.60;8.77;;;8.30;99.90;;;;;;4959342;28;20172;-81
2023/04/10 03:56:48;;;;;;;13.90;9.80;;;8.30;99.90;;;;;;4983323;28;20188;-80
2023/04/10 03:59:14;;;;;;;12.67;9.53;;;8.30;99.90;;;;;;4964221;28;20215;-80
2023/04/10 04:01:39;;;;;;;13.23;10.13;;;8.30;99.90;;;;;;4982943;28;20215;-80
2023/04/10 04:04:05;;;;;;;13.77;8.90;;;8.20;99.90;;;;;;4977335;28;20195;-80
2023/04/10 04:06:30;;;;;;;10.33;8.73;;;8.20;99.90;;;;;;4985097;28;20298;-80
2023/04/10 04:08:56;;;;;;;11.30;9.10;;;8.20;99.90;;;;;;4973527;28;20219;-80
2023/04/10 04:11:22;;;;;;;11.93;8.60;;;8.20;99.90;;;;;;4979363;28;20200;-81
2023/04/10 04:13:47;;;;;;;14.43;9.33;;;8.20;99.90;;;;;;4981931;28;20211;-80
2023/04/10 04:16:13;;;;;;;10.40;8.70;;;8.20;99.90;;;;;;4982825;28;20619;-82
2023/04/10 04:18:38;;;;;;;11.43;8.83;;;8.10;99.90;;;;;;4979022;28;20633;-82
2023/04/10 04:21:04;;;;;;;23.30;10.47;;;8.10;99.90;;;;;;4983926;28;20203;-81
2023/04/10 04:23:30;;;;;;;14.73;9.47;;;8.00;1.00;;;;;;4988775;28;20227;-82
2023/04/10 04:25:57;;;;;;;13.93;10.97;;;8.00;1.00;;;;;;4980257;28;20215;-77
2023/04/10 04:28:22;;;;;;;13.65;9.15;;;7.90;1.00;;;;;;4948019;28;20251;-80
2023/04/10 04:30:48;;;;;;;14.70;9.20;;;7.90;1.00;;;;;;4970428;28;20172;-81
2023/04/10 04:33:13;;;;;;;14.80;11.13;;;7.90;1.00;;;;;;4973118;28;20192;-80
2023/04/10 04:35:39;;;;;;;13.53;9.43;;;7.80;1.00;;;;;;4970717;28;20667;-80
2023/04/10 04:38:05;;;;;;;14.97;9.43;;;7.80;1.00;;;;;;4961084;28;20208;-80
2023/04/10 04:40:30;;;;;;;12.80;9.43;;;7.80;1.00;;;;;;4970340;28;20193;-79
2023/04/10 04:42:56;;;;;;;12.80;9.93;;;7.80;1.00;;;;;;4969277;28;20192;-79
2023/04/10 04:45:23;;;;;;;16.90;9.07;;;7.70;1.00;;;;;;4953041;28;20208;-78
2023/04/10 04:47:52;;;;;;;12.20;9.13;;;7.70;1.00;;;;;;4948103;28;20678;-77
2023/04/10 04:50:18;;;;;;;16.85;10.70;;;7.80;1.00;;;;;;4946451;28;20180;-77
2023/04/10 04:52:46;;;;;;;10.83;9.43;;;7.70;1.00;;;;;;4948218;28;20181;-78
2023/04/10 04:55:15;;;;;;;11.32;9.32;;;7.70;1.00;;;;;;4948320;28;20452;-80
2023/04/10 04:57:40;;;;;;;10.98;8.73;;;7.70;1.00;;;;;;4947132;28;20267;-78
2023/04/10 05:00:07;;;;;;;17.33;11.93;;;7.70;1.00;;;;;;4953458;28;20719;-79
2023/04/10 05:02:32;;;;;;;13.50;9.15;;;7.70;1.00;;;;;;4978445;28;20460;-80
2023/04/10 05:04:58;;;;;;;9.93;8.90;;;7.70;1.00;;;;;;4974778;28;20274;-79
2023/04/10 05:07:23;;;;;;;12.83;9.67;;;7.70;1.00;;;;;;4984359;28;20196;-79
2023/04/10 05:09:49;;;;;;;11.80;9.27;;;7.80;1.00;;;;;;4977339;28;20231;-79
2023/04/10 05:12:15;;;;;;;10.47;8.60;;;7.80;1.00;;;;;;4959567;28;20318;-79
2023/04/10 05:14:40;;;;;;;13.20;9.40;;;7.90;1.00;;;;;;4959871;28;20184;-80
2023/04/10 05:17:06;;;;;;;9.27;7.53;;;8.00;1.00;;;;;;4972539;28;20288;-79
2023/04/10 05:19:31;;;;;;;11.87;9.37;;;8.10;1.00;;;;;;4973784;28;20228;-80
2023/04/10 05:21:57;;;;;;;12.80;10.93;;;8.30;1.00;;;;;;4975601;28;20648;-78
2023/04/10 05:24:22;;;;;;;15.20;10.00;;;8.30;1.00;;;;;;4978955;28;20193;-78
2023/04/10 05:26:48;;;;;;;18.00;10.17;;;8.40;1.00;;;;;;4979830;28;20634;-79
2023/04/10 05:29:13;;;;;;;13.47;10.07;;;8.50;1.00;;;;;;4977039;28;20231;-80
2023/04/10 05:31:39;;;;;;;14.40;9.60;;;8.60;1.00;;;;;;4975751;28;20191;-79
2023/04/10 05:34:04;;;;;;;12.90;9.17;;;8.70;1.00;;;;;;4977741;28;20247;-80
2023/04/10 05:36:31;;;;;;;12.57;10.80;;;8.90;99.90;;;;;;4963602;28;20196;-79
2023/04/10 05:38:56;;;;;;;14.00;10.77;;;9.10;99.90;;;;;;4984021;28;20233;-79
2023/04/10 05:41:22;;;;;;;14.43;10.10;;;9.30;99.90;;;;;;4983668;28;20192;-80
2023/04/10 05:43:48;;;;;;;13.20;10.17;;;9.70;99.90;;;;;;4984358;28;20188;-80
2023/04/10 05:46:14;;;;;;;12.90;10.23;;;10.80;99.90;;;;;;4965795;28;20208;-81
2023/04/10 05:48:39;;;;;;;11.30;9.50;;;12.80;99.90;;;;;;4984058;28;20440;-80
2023/04/10 05:51:05;;;;;;;20.20;9.90;;;14.00;99.90;;;;;;4981267;28;20580;-79
2023/04/10 05:53:31;;;;;;;9.87;8.20;;;14.80;99.90;;;;;;4984381;28;20179;-80
2023/04/10 05:55:58;;;;;;;12.17;10.40;;;16.10;99.90;;;;;;4984882;28;20452;-79
2023/04/10 05:58:24;;;;;;;15.93;9.67;;;16.80;99.90;;;;;;4984523;28;20273;-79
2023/04/10 06:00:51;;;;;;;10.07;8.47;;;17.30;99.90;;;;;;4988359;28;20432;-80
2023/04/10 06:03:17;;;;;;;10.67;9.03;;;18.60;99.90;;;;;;4989135;28;20451;-80
2023/04/10 06:05:42;;;;;;;11.10;9.23;;;20.00;99.90;;;;;;4989196;28;20509;-80
2023/04/10 06:08:08;;;;;;;11.67;10.50;;;22.00;99.90;;;;;;4983604;28;20207;-79
2023/04/10 06:10:33;;;;;;;10.60;8.90;;;24.30;99.90;;;;;;4984250;28;20212;-80
2023/04/10 06:12:59;;;;;;;13.53;10.20;;;25.90;99.90;;;;;;4968441;28;20252;-80
2023/04/10 06:15:25;;;;;;;11.00;9.90;;;26.80;99.90;;;;;;4987914;28;20196;-80
2023/04/10 06:17:50;;;;;;;10.20;9.10;;;28.20;99.90;;;;;;4987958;28;20443;-80
2023/04/10 06:20:16;;;;;;;10.37;9.00;;;30.20;99.90;;;;;;4988860;28;20224;-81
2023/04/10 06:22:41;;;;;;;16.00;8.60;;;31.30;99.90;;;;;;4971050;28;20191;-81
2023/04/10 06:25:07;;;;;;;10.00;8.97;;;30.80;99.90;;;;;;4989689;28;20219;-81
2023/04/10 06:27:34;;;;;;;9.30;8.40;;;29.90;99.90;;;;;;4959409;28;20211;-81
2023/04/10 06:30:00;;;;;;;10.03;9.00;;;30.40;99.90;;;;;;4978533;28;20459;-81
2023/04/10 06:32:26;;;;;;;10.63;9.73;;;29.60;99.90;;;;;;4978044;28;20742;-80
2023/04/10 06:34:51;;;;;;;10.27;9.10;;;28.30;99.90;;;;;;4981254;28;20443;-80
2023/04/10 06:37:17;;;;;;;9.10;8.20;;;28.20;99.90;;;;;;4973305;28;20195;-80
2023/04/10 06:39:42;;;;;;;10.33;9.43;;;28.40;99.90;;;;;;4956118;28;20303;-81
2023/04/10 06:42:08;;;;;;;9.03;8.23;;;29.20;99.90;;;;;;4962574;28;20683;-81
2023/04/10 06:44:34;;;;;;;17.20;9.03;;;29.90;99.90;;;;;;4976678;28;20307;-80
2023/04/10 06:46:59;;;;;;;12.30;10.20;;;29.80;99.90;;;;;;4970617;28;20207;-81
2023/04/10 06:49:25;;;;;;;12.47;11.00;;;29.30;99.90;;;;;;4976490;28;20224;-81
2023/04/10 06:51:50;;;;;;;16.77;11.97;;;28.90;99.90;;;;;;4956055;28;20491;-81
2023/04/10 06:54:16;;;;;;;13.40;12.00;;;28.10;99.90;;;;;;4961123;28;20203;-81
2023/04/10 06:56:42;;;;;;;17.93;16.13;;;26.80;99.90;;;;;;4969260;28;20188;-80
2023/04/10 06:59:07;;;;;;;13.23;11.90;;;25.50;99.90;;;;;;4971204;28;21083;-80
2023/04/10 07:01:33;;;;;;;13.43;12.13;;;24.40;99.90;;;;;;4975001;28;20515;-79
2023/04/10 07:03:58;;;;;;;16.77;15.10;;;24.20;99.90;;;;;;4975684;28;20214;-79
2023/04/10 07:06:25;;;;;;;12.87;11.70;;;24.00;99.90;;;;;;4974642;28;20213;-79
2023/04/10 07:08:50;;;;;;;20.03;17.90;;;23.80;99.90;;;;;;4982181;28;20205;-80
2023/04/10 07:11:16;;;;;;;11.10;10.10;;;23.50;99.90;;;;;;4982241;28;20440;-80
2023/04/10 07:13:41;;;;;;;14.40;13.07;;;23.40;99.90;;;;;;4982338;28;20198;-80
2023/04/10 07:16:08;;;;;;;11.60;10.57;;;23.80;99.90;;;;;;4983238;28;20223;-82
2023/04/10 07:18:34;;;;;;;18.00;16.10;;;24.70;99.90;;;;;;4983495;28;20234;-81
2023/04/10 07:21:01;;;;;;;11.27;10.20;;;24.90;99.90;;;;;;4990764;28;20443;-82
2023/04/10 07:23:26;;;;;;;26.00;20.67;;;24.90;99.90;;;;;;4985307;28;20439;-78
2023/04/10 07:25:52;;;;;;;19.60;17.70;;;25.70;99.90;;;;;;4973431;28;20582;-79
2023/04/10 07:28:17;;;;;;;10.03;9.13;;;26.30;99.90;;;;;;4961023;28;20204;-79
2023/04/10 07:30:43;;;;;;;9.33;8.40;;;27.00;99.90;;;;;;4979325;28;20545;-78
2023/04/10 07:33:08;;;;;;;10.00;9.03;;;27.90;99.90;;;;;;4978141;28;20269;-79
2023/04/10 07:35:35;;;;;;;9.80;8.37;;;29.00;99.90;;;;;;4976482;28;20196;-79
2023/04/10 07:38:01;;;;;;;8.23;7.43;;;29.20;99.90;;;;;;4976839;28;20215;-79
2023/04/10 07:40:26;;;;;;;9.63;8.53;;;28.90;99.90;;;;;;4977983;28;20806;-80
2023/04/10 07:42:52;;;;;;;8.67;7.87;;;28.90;99.90;;;;;;4979318;28;20188;-79
2023/04/10 07:45:17;;;;;;;8.63;7.63;;;29.20;99.90;;;;;;4977681;28;20236;-80
2023/04/10 07:47:43;;;;;;;9.10;8.20;;;28.80;99.90;;;;;;4979674;28;20542;-79
2023/04/10 07:50:08;;;;;;;8.93;8.00;;;28.40;99.90;;;;;;4980381;28;20192;-80
2023/04/10 07:52:34;;;;;;;8.93;8.13;;;28.20;99.90;;;;;;4972947;28;20192;-79
2023/04/10 07:55:03;;;;;;;7.87;7.07;;;28.10;99.90;;;;;;4978715;28;20315;-79
2023/04/10 07:57:30;;;;;;;9.30;8.50;;;27.90;99.90;;;;;;4977652;28;20189;-80
2023/04/10 07:59:56;;;;;;;14.50;8.80;;;27.30;99.90;;;;;;4979644;28;20455;-80
2023/04/10 08:02:21;;;;;;;8.97;7.90;;;26.20;99.90;;;;;;4985576;28;20446;-81
2023/04/10 08:04:47;;;;;;;9.47;8.57;;;25.50;99.90;;;;;;4975241;28;20225;-79
2023/04/10 08:07:12;;;;;;;9.40;8.50;;;24.90;99.90;;;;;;4967725;28;20181;-78
2023/04/10 08:09:38;;;;;;;10.30;9.30;;;24.50;99.90;;;;;;4972523;28;20208;-79
2023/04/10 08:12:04;;;;;;;9.87;8.87;;;23.90;99.90;;;;;;4975288;28;20219;-79
2023/04/10 08:14:29;;;;;;;9.70;8.70;;;23.30;99.90;;;;;;4975182;28;20219;-81
2023/04/10 08:16:56;;;;;;;10.10;8.67;;;22.80;99.90;;;;;;4965484;28;20203;-80
2023/04/10 08:19:25;;;;;;;9.60;8.70;;;22.40;99.90;;;;;;4973329;28;20724;-80
2023/04/10 08:21:50;;;;;;;12.77;9.40;;;21.90;99.90;;;;;;4949224;28;20449;-80
2023/04/10 08:24:18;;;;;;;9.03;8.23;;;21.80;99.90;;;;;;4975041;28;20543;-81
2023/04/10 08:26:44;;;;;;;13.53;8.10;;;22.10;99.90;;;;;;4950507;28;20275;-80
2023/04/10 08:29:09;;;;;;;8.10;7.30;;;22.40;99.90;;;;;;4975087;28;20497;-81
2023/04/10 08:31:35;;;;;;;10.40;9.50;;;23.20;99.90;;;;;;4972823;28;20176;-79
2023/04/10 08:34:00;;;;;;;8.63;7.73;;;24.30;99.90;;;;;;4964754;28;20199;-81
2023/04/10 08:36:30;;;;;;;9.70;8.43;;;25.50;99.90;;;;;;4972596;28;20188;-81
2023/04/10 08:39:04;;;;;;;9.37;8.43;;;26.20;99.90;;;;;;4971392;28;20667;-80
2023/04/10 08:41:32;;;;;;;9.10;7.70;;;26.20;99.90;;;;;;4942694;28;20436;-82
2023/04/10 08:43:58;;;;;;;9.87;8.80;;;27.40;99.90;;;;;;4958102;28;20444;-81
2023/04/10 08:46:25;;;;;;;9.13;8.17;;;28.50;99.90;;;;;;4970312;28;20470;-81
2023/04/10 08:49:03;;;;;;;8.13;7.43;;;29.50;99.90;;;;;;4960327;28;20648;-82
2023/04/10 08:51:44;;;;;;;15.13;8.00;;;30.70;99.90;;;;;;4977329;28;20942;-82
2023/04/10 08:54:14;;;;;;;8.30;6.60;;;32.30;99.90;;;;;;4961386;28;20828;-80
2023/04/10 08:56:47;;;;;;;8.47;7.77;;;33.30;99.90;;;;;;4959376;28;20431;-79
2023/04/10 08:59:12;;;;;;;8.60;7.90;;;33.30;99.90;;;;;;4958155;28;20452;-79
2023/04/10 09:01:39;;;;;;;8.20;7.50;;;32.80;99.90;;;;;;4952583;28;20824;-79
2023/04/10 09:04:05;;;;;;;7.80;7.00;;;32.40;99.90;;;;;;4951667;29;20188;-80
2023/04/10 09:06:33;;;;;;;8.03;7.23;;;32.50;99.90;;;;;;4956422;28;20503;-79
2023/04/10 09:08:58;;;;;;;8.63;6.93;;;31.80;99.90;;;;;;4939698;29;20456;-78
2023/04/10 09:11:54;;;;;;;8.03;7.33;;;30.60;99.90;;;;;;4965738;28;20463;-78
2023/04/10 09:14:28;;;;;;;7.40;5.80;;;28.90;99.90;;;;;;4958042;28;20184;-78
2023/04/10 09:17:11;;;;;;;9.33;7.50;;;27.80;99.90;;;;;;4948914;28;20475;-79
2023/04/10 09:19:37;;;;;;;8.07;7.27;;;27.00;99.90;;;;;;4973647;28;20510;-79
2023/04/10 09:22:03;;;;;;;8.97;7.77;;;26.50;99.90;;;;;;4954548;28;20419;-79
2023/04/10 09:24:29;;;;;;;8.90;7.47;;;26.10;99.90;;;;;;4976791;28;20252;-79
2023/04/10 09:26:55;;;;;;;7.50;6.80;;;25.80;99.90;;;;;;4960009;28;20430;-79
2023/04/10 09:29:21;;;;;;;7.90;7.20;;;25.40;99.90;;;;;;4956790;28;20235;-79
2023/04/10 09:31:46;;;;;;;8.17;7.17;;;25.40;99.90;;;;;;4947559;29;20585;-77
2023/04/10 09:34:21;;;;;;;8.53;7.67;;;25.20;99.90;;;;;;4975796;28;20187;-81
2023/04/10 09:36:55;;;;;;;7.63;6.40;;;25.00;99.90;;;;;;4959843;28;20234;-81
2023/04/10 09:39:31;;;;;;;7.80;7.03;;;24.90;99.90;;;;;;4952298;28;20499;-80
2023/04/10 09:41:57;;;;;;;7.73;7.00;;;25.30;99.90;;;;;;4960044;28;20431;-82
2023/04/10 09:44:31;;;;;;;6.67;5.67;;;25.00;99.90;;;;;;4960327;28;20481;-80
2023/04/10 09:47:15;;;;;;;6.70;6.10;;;24.80;99.90;;;;;;4976311;28;21034;-81
2023/04/10 09:49:49;;;;;;;8.63;6.90;;;25.30;99.90;;;;;;4960172;28;20813;-80
2023/04/10 09:52:25;;;;;;;8.30;6.90;;;26.00;99.90;;;;;;4979862;28;20454;-80
2023/04/10 09:55:02;;;;;;;7.70;5.67;;;26.60;99.90;;;;;;4962546;28;20431;-80
2023/04/10 09:57:34;;;;;;;8.33;5.63;;;27.50;99.90;;;;;;4962598;28;20435;-82
2023/04/10 10:00:03;;;;;;;6.40;5.27;;;27.90;99.90;;;;;;4959669;28;20464;-83
2023/04/10 10:02:40;;;;;;;6.20;5.60;;;27.90;99.90;;;;;;4956474;28;20823;-79
2023/04/10 10:05:06;;;;;;;5.30;4.73;;;27.60;99.90;;;;;;4951134;29;20437;-80
2023/04/10 10:07:32;;;;;;;7.10;5.70;;;27.40;99.90;;;;;;4946697;28;20421;-79
2023/04/10 10:09:59;;;;;;;5.30;4.80;;;27.00;99.90;;;;;;4967001;28;20446;-79
2023/04/10 10:12:33;;;;;;;6.73;4.90;;;26.60;99.90;;;;;;4968832;28;20177;-80
2023/04/10 10:15:07;;;;;;;6.37;4.60;;;26.40;99.90;;;;;;4968606;28;20429;-80
2023/04/10 10:17:45;;;;;;;7.00;4.90;;;26.00;99.90;;;;;;4969852;28;20427;-79
2023/04/10 10:20:16;;;;;;;5.27;4.63;;;25.70;99.90;;;;;;4968766;28;20451;-80
2023/04/10 10:22:43;;;;;;;4.93;4.53;;;25.40;99.90;;;;;;4985205;28;20447;-79
2023/04/10 10:25:09;;;;;;;6.80;5.70;;;25.20;99.90;;;;;;4972149;28;20522;-80
2023/04/10 10:27:42;;;;;;;11.50;5.07;;;24.80;99.90;;;;;;4971123;28;20423;-80
2023/04/10 10:30:11;;;;;;;6.00;5.40;;;24.30;99.90;;;;;;4988504;28;20478;-80
2023/04/10 10:32:37;;;;;;;5.17;4.77;;;24.00;99.90;;;;;;4981393;28;20448;-79
2023/04/10 10:35:04;;;;;;;6.03;5.47;;;23.80;99.90;;;;;;4972879;28;20443;-80
2023/04/10 10:37:30;;;;;;;6.80;5.30;;;23.60;99.90;;;;;;4984432;28;20439;-79
2023/04/10 10:40:09;;;;;;;6.47;3.87;;;23.50;99.90;;;;;;4986907;28;20485;-79
2023/04/10 10:43:02;;;;;;;6.43;3.73;;;23.40;99.90;;;;;;4967067;28;20411;-80
2023/04/10 10:45:39;;;;;;;5.80;4.70;;;23.40;99.90;;;;;;4986856;28;20424;-79
2023/04/10 10:48:06;;;;;;;6.70;3.47;;;23.40;99.90;;;;;;4988122;28;20551;-81
2023/04/10 10:50:58;;;;;;;3.87;3.47;;;23.50;99.90;;;;;;4987309;28;20426;-78
2023/04/10 10:53:44;;;;;;;3.27;2.93;;;23.80;99.90;;;;;;4978289;28;20184;-78
2023/04/10 10:56:18;;;;;;;2.87;2.37;;;24.10;99.90;;;;;;4975568;28;20476;-79
2023/04/10 10:58:56;;;;;;;3.03;2.50;;;24.20;99.90;;;;;;4961653;28;20460;-80
2023/04/10 11:01:22;;;;;;;4.43;2.80;;;24.30;99.90;;;;;;4969791;28;20830;-79
2023/04/10 11:03:48;;;;;;;3.60;3.07;;;24.30;99.90;;;;;;4963287;28;20426;-79
2023/04/10 11:06:16;;;;;;;2.97;2.67;;;24.30;99.90;;;;;;4947056;28;20431;-78
2023/04/10 11:08:46;;;;;;;2.97;2.67;;;24.30;99.90;;;;;;4965259;28;20446;-78
2023/04/10 11:11:26;;;;;;;3.30;2.93;;;24.40;99.90;;;;;;4976356;28;20450;-79
2023/04/10 11:13:51;;;;;;;3.50;3.20;;;24.50;99.90;;;;;;4984152;28;21000;-79
2023/04/10 11:16:20;;;;;;;3.70;3.30;;;24.50;99.90;;;;;;4984761;28;20561;-79
2023/04/10 11:18:46;;;;;;;3.83;2.73;;;24.40;99.90;;;;;;4969414;28;20287;-79
2023/04/10 11:21:13;;;;;;;3.17;2.87;;;24.20;99.90;;;;;;4968039;28;20440;-79
2023/04/10 11:23:54;;;;;;;3.83;2.87;;;24.10;99.90;;;;;;4974633;28;20201;-79
2023/04/10 11:26:32;;;;;;;3.47;3.17;;;24.00;99.90;;;;;;4973360;28;20513;-79
2023/04/10 11:28:58;;;;;;;3.20;2.53;;;24.00;99.90;;;;;;4980799;28;20914;-78
2023/04/10 11:31:25;;;;;;;3.70;3.40;;;24.00;99.90;;;;;;4950590;28;20421;-78
2023/04/10 11:34:00;;;;;;;2.73;2.47;;;24.00;99.90;;;;;;4964270;28;20445;-80
2023/04/10 11:36:26;;;;;;;2.90;2.40;;;24.00;99.90;;;;;;4966139;28;20500;-79
2023/04/10 11:38:54;;;;;;;3.13;2.80;;;24.00;99.90;;;;;;4948732;29;20532;-79
2023/04/10 11:41:20;;;;;;;3.60;3.30;;;24.20;99.90;;;;;;4947965;28;20515;-79
2023/04/10 11:43:50;;;;;;;2.80;2.60;;;24.30;99.90;;;;;;4977141;28;20528;-79
2023/04/10 11:46:16;;;;;;;3.10;2.67;;;24.50;99.90;;;;;;4983395;28;20218;-79
2023/04/10 11:48:42;;;;;;;5.77;4.83;;;24.60;99.90;;;;;;4966880;28;20450;-79
2023/04/10 11:51:12;;;;;;;3.17;2.87;;;24.90;99.90;;;;;;4985139;28;20230;-79
2023/04/10 11:53:39;;;;;;;3.90;3.17;;;25.40;99.90;;;;;;4984331;28;20204;-80
2023/04/10 11:56:06;;;;;;;3.10;2.80;;;26.00;99.90;;;;;;4983740;28;20526;-79
2023/04/10 11:58:32;;;;;;;2.67;2.47;;;26.70;99.90;;;;;;4965545;28;20527;-79
2023/04/10 12:01:04;;;;;;;4.00;2.83;;;27.00;99.90;;;;;;4980635;28;20459;-79
2023/04/10 12:03:34;;;;;;;2.60;2.30;;;27.30;99.90;;;;;;4964307;28;20683;-79
2023/04/10 12:06:00;;;;;;;4.07;3.10;;;27.80;99.90;;;;;;4981466;28;20474;-81
2023/04/10 12:08:34;;;;;;;4.63;3.90;;;28.00;99.90;;;;;;4963045;28;20444;-79
2023/04/10 12:11:00;;;;;;;2.90;2.60;;;28.10;99.90;;;;;;4979955;28;20185;-79
2023/04/10 12:13:29;;;;;;;2.63;2.40;;;28.00;99.90;;;;;;4963575;28;20454;-80
2023/04/10 12:15:59;;;;;;;3.17;2.73;;;28.00;99.90;;;;;;4963659;28;20506;-81
2023/04/10 12:18:25;;;;;;;6.57;5.30;;;28.10;99.90;;;;;;4959515;28;20471;-80
2023/04/10 12:20:55;;;;;;;4.83;3.27;;;28.50;99.90;;;;;;4980142;28;20446;-80
2023/04/10 12:23:21;;;;;;;2.90;2.40;;;29.20;99.90;;;;;;4978961;28;20478;-80
2023/04/10 12:25:47;;;;;;;3.10;2.83;;;30.20;99.90;;;;;;4979652;28;20467;-79
2023/04/10 12:28:20;;;;;;;5.23;3.00;;;30.50;99.90;;;;;;4979545;28;20443;-80
2023/04/10 12:30:51;;;;;;;6.77;4.73;;;30.40;99.90;;;;;;4975260;28;20204;-79
2023/04/10 12:33:24;;;;;;;3.67;3.13;;;30.20;99.90;;;;;;4956914;28;20439;-80
2023/04/10 12:35:51;;;;;;;4.67;4.00;;;30.10;99.90;;;;;;4962526;28;20427;-79
2023/04/10 12:38:42;;;;;;;5.23;3.67;;;30.10;99.90;;;;;;4979810;28;20525;-80
2023/04/10 12:41:10;;;;;;;2.53;2.33;;;29.90;99.90;;;;;;4980270;28;20523;-80
2023/04/10 12:43:43;;;;;;;4.60;2.30;;;29.40;99.90;;;;;;4981527;28;20986;-79
2023/04/10 12:46:20;;;;;;;2.70;2.20;;;29.10;99.90;;;;;;4963078;28;20522;-79
2023/04/10 12:48:46;;;;;;;2.93;2.33;;;28.80;99.90;;;;;;4978041;28;20639;-78